Time;durP1;ratioP1;P1;durP2;ratioP2;P2;SDS_P1;SDS_P2;PMS_P1;PMS_P2;Temp;Humidity;BMP_temperature;BMP_pressure;BME280_temperature;BME280_humidity;BME280_pressure;Samples;Min_cycle;Max_cycle;Signal;HPM_P1;HPM_P2
2023/10/11 00:00:02;;;;;;;18.20;14.10;;;;;;;12.85;96.18;100406.13;125456;1288;114409;-61
2023/10/11 00:04:32;;;;;;;23.70;16.40;;;;;;;12.83;95.91;100417.16;125492;1292;129805;-61
2023/10/11 00:08:39;;;;;;;;;;;;;;;;;;;;;
2023/10/11 00:12:47;;;;;;;21.20;15.40;;;;;;;12.75;95.87;100412.76;124855;1298;114745;-61
2023/10/11 00:20:57;;;;;;;24.00;17.60;;;;;;;12.68;95.86;100409.74;125496;1289;115396;-61
2023/10/11 00:24:57;;;;;;;24.60;17.10;;;;;;;12.66;96.00;100399.47;125579;1291;130237;-71
2023/10/11 00:28:55;;;;;;;23.50;17.00;;;;;;;12.66;96.04;100387.33;124544;1298;113824;-62
2023/10/11 00:32:41;;;;;;;23.60;15.90;;;;;;;12.65;96.16;100380.91;124370;1298;114936;-70
2023/10/11 00:45:48;;;;;;;24.10;16.30;;;;;;;12.62;96.07;100380.16;125147;1289;128668;-64
2023/10/11 00:53:51;;;;;;;;;;;;;;;;;;;;;
2023/10/11 00:57:48;;;;;;;;;;;;;;;;;;;;;
2023/10/11 01:01:56;;;;;;;26.10;17.70;;;;;;;12.54;96.24;100376.68;125927;1285;114925;-62
2023/10/11 01:05:55;;;;;;;32.50;22.30;;;;;;;12.54;96.27;100369.73;127872;1264;127973;-78
2023/10/11 01:13:28;;;;;;;25.80;19.40;;;;;;;12.53;96.26;100358.14;128424;1286;114838;-71
2023/10/11 01:17:23;;;;;;;;;;;;;;;;;;;;;
2023/10/11 01:21:11;;;;;;;32.40;22.10;;;;;;;12.46;96.30;100349.52;125812;1314;114964;-73
2023/10/11 01:28:58;;;;;;;29.40;20.90;;;;;;;12.42;96.33;100343.33;125537;1305;115311;-77
2023/10/11 01:32:47;;;;;;;31.40;20.80;;;;;;;12.39;96.49;100344.94;124783;1307;114866;-76
2023/10/11 01:36:51;;;;;;;30.60;20.50;;;;;;;12.36;96.39;100343.30;124839;1324;114937;-76
2023/10/11 01:44:43;;;;;;;26.80;19.80;;;;;;;12.34;96.43;100340.55;126259;1304;635881;-76
2023/10/11 01:48:27;;;;;;;29.80;21.20;;;;;;;12.30;96.78;100336.82;128931;1275;127361;-77
2023/10/11 01:52:34;;;;;;;28.50;20.90;;;;;;;12.28;96.88;100336.89;129176;1270;115193;-74
2023/10/11 01:56:32;;;;;;;28.00;19.30;;;;;;;12.28;96.68;100339.98;129108;1269;115072;-74
2023/10/11 02:00:29;;;;;;;27.80;20.20;;;;;;;12.25;96.76;100344.64;124200;1276;114973;-76
2023/10/11 02:04:16;;;;;;;26.70;21.00;;;;;;;12.22;96.81;100349.65;127888;1280;115063;-74
2023/10/11 02:08:04;;;;;;;;;;;;;;;;;;;;;
2023/10/11 02:12:10;;;;;;;32.10;21.40;;;;;;;12.14;96.79;100341.27;126985;1302;128026;-77
2023/10/11 02:16:11;;;;;;;;;;;;;;;;;;;;;
2023/10/11 02:20:11;;;;;;;;;;;;;;;;;;;;;
2023/10/11 02:24:04;;;;;;;28.70;20.00;;;;;;;12.10;97.15;100335.40;124825;1324;115077;-68
2023/10/11 02:27:49;;;;;;;28.30;19.00;;;;;;;12.07;97.01;100335.80;124872;1329;115090;-70
2023/10/11 02:31:41;;;;;;;21.70;16.60;;;;;;;12.03;96.49;100334.73;124574;1324;128774;-77
2023/10/11 02:39:57;;;;;;;25.30;17.30;;;;;;;11.93;96.37;100324.70;126512;1294;636094;-72
2023/10/11 02:43:57;;;;;;;24.90;18.40;;;;;;;11.84;96.16;100323.02;127894;1275;128504;-68
2023/10/11 02:48:02;;;;;;;26.10;19.80;;;;;;;11.76;96.40;100319.33;127598;1303;114947;-70
2023/10/11 02:51:57;;;;;;;24.50;18.40;;;;;;;11.70;96.65;100314.67;123678;1284;5443688;-75
2023/10/11 02:55:54;;;;;;;;;;;;;;;;;;;;;
2023/10/11 02:59:57;;;;;;;23.80;17.60;;;;;;;11.58;96.19;100321.05;126840;1305;114778;-73
2023/10/11 03:03:50;;;;;;;;;;;;;;;;;;;;;
2023/10/11 03:07:39;;;;;;;27.30;18.30;;;;;;;11.44;96.34;100315.31;125309;1307;114846;-71
2023/10/11 03:11:19;;;;;;;;;;;;;;;;;;;;;
2023/10/11 03:19:17;;;;;;;;;;;;;;;;;;;;;
2023/10/11 03:23:25;;;;;;;25.30;17.90;;;;;;;11.21;95.99;100313.11;128769;1292;128978;-73
2023/10/11 03:27:16;;;;;;;;;;;;;;;;;;;;;
2023/10/11 03:30:58;;;;;;;;;;;;;;;;;;;;;
2023/10/11 03:34:48;;;;;;;27.10;19.10;;;;;;;11.05;96.05;100311.26;126088;1315;114976;-68
2023/10/11 03:39:16;;;;;;;27.00;19.10;;;;;;;11.01;96.39;100309.84;125467;1301;129908;-65
2023/10/11 03:46:47;;;;;;;29.30;21.00;;;;;;;10.95;96.61;100304.79;124949;1328;114984;-67
2023/10/11 03:54:29;;;;;;;33.00;21.40;;;;;;;10.94;96.98;100291.08;126386;1295;635617;-65
2023/10/11 03:58:32;;;;;;;25.70;19.30;;;;;;;10.92;97.04;100288.15;129297;1267;128968;-67
2023/10/11 04:02:24;;;;;;;;;;;;;;;;;;;;;
2023/10/11 04:10:38;;;;;;;27.40;19.70;;;;;;;10.91;97.26;100283.02;123476;1297;115432;-69
2023/10/11 04:14:39;;;;;;;28.60;19.20;;;;;;;10.91;97.17;100285.16;125805;1314;115292;-68
2023/10/11 04:18:14;;;;;;;25.00;18.90;;;;;;;10.90;97.17;100279.30;125657;1320;115400;-73
2023/10/11 04:26:05;;;;;;;21.70;16.10;;;;;;;10.86;97.09;100280.08;123627;1319;115324;-65
2023/10/11 04:29:55;;;;;;;26.30;19.40;;;;;;;10.85;97.37;100279.21;123384;1340;116257;-65
2023/10/11 04:33:49;;;;;;;;;;;;;;;;;;;;;
2023/10/11 04:37:43;;;;;;;;;;;;;;;;;;;;;
2023/10/11 04:41:49;;;;;;;;;;;;;;;;;;;;;
2023/10/11 04:45:28;;;;;;;27.30;19.20;;;;;;;10.81;97.19;100273.54;127811;1282;115344;-64
2023/10/11 04:49:03;;;;;;;29.70;20.10;;;;;;;10.78;97.16;100269.56;127952;1281;114884;-61
2023/10/11 04:52:51;;;;;;;25.20;19.80;;;;;;;10.76;97.43;100266.98;124826;1276;114929;-63
2023/10/11 05:00:40;;;;;;;27.30;19.30;;;;;;;10.71;97.29;100255.99;128793;1291;114836;-61
2023/10/11 05:09:13;;;;;;;23.60;17.40;;;;;;;10.61;97.41;100249.50;127076;1286;115643;-61
2023/10/11 05:12:44;;;;;;;26.20;18.90;;;;;;;10.58;97.22;100248.63;125987;1295;116614;-61
2023/10/11 05:16:18;;;;;;;;;;;;;;;;;;;;;
2023/10/11 05:52:40;;;;;;;;;;;;;;;;;;;;;
2023/10/11 05:56:07;;;;;;;;;;;;;;;;;;;;;
2023/10/11 05:59:48;;;;;;;;;;;;;;;;;;;;;
2023/10/11 06:02:59;;;;;;;26.60;17.70;;;;;;;11.32;99.20;100268.92;125627;1301;115340;-69
2023/10/11 06:07:35;;;;;;;23.50;17.50;;;;;;;11.50;99.32;100262.23;125743;1302;115646;-71
2023/10/11 06:18:00;;;;;;;;;;;;;;;;;;;;;
2023/10/11 06:21:34;;;;;;;33.30;18.60;;;;;;;12.51;100.00;100250.72;125178;1318;115548;-69
2023/10/11 06:25:49;;;;;;;28.10;18.30;;;;;;;12.79;100.00;100253.05;125648;1303;114919;-70
2023/10/11 06:28:44;;;;;;;25.50;18.10;;;;;;;13.03;100.00;100251.99;125857;1311;114975;-71
2023/10/11 06:36:29;;;;;;;31.20;18.50;;;;;;;13.54;100.00;100243.13;126897;1289;636323;-64
2023/10/11 06:43:05;;;;;;;;;;;;;;;;;;;;;
2023/10/11 06:46:28;;;;;;;30.90;16.80;;;;;;;14.20;100.00;100233.52;128653;1275;114799;-69
2023/10/11 06:50:10;;;;;;;;;;;;;;;;;;;;;
2023/10/11 06:53:56;;;;;;;;;;;;;;;;;;;;;
2023/10/11 06:57:49;;;;;;;;;;;;;;;;;;;;;
2023/10/11 07:01:40;;;;;;;25.30;12.60;;;;;;;15.20;99.96;100235.30;128370;1278;128502;-65
2023/10/11 07:05:17;;;;;;;21.30;11.90;;;;;;;15.50;99.80;100232.67;127174;1284;116933;-69
2023/10/11 07:09:11;;;;;;;15.70;10.70;;;;;;;15.74;99.45;100230.78;126776;1293;114931;-65
2023/10/11 07:17:08;;;;;;;;;;;;;;;;;;;;;
2023/10/11 07:20:59;;;;;;;24.70;11.50;;;;;;;16.44;98.19;100229.77;125522;1309;130039;-62
2023/10/11 07:24:31;;;;;;;24.50;11.40;;;;;;;16.69;97.82;100222.13;125444;1302;115102;-62
2023/10/11 07:28:18;;;;;;;19.80;10.00;;;;;;;16.92;97.48;100225.29;125631;1318;114894;-62
2023/10/11 07:31:59;;;;;;;20.00;9.90;;;;;;;17.18;97.43;100227.64;125546;1320;114859;-62
2023/10/11 07:35:38;;;;;;;;;;;;;;;;;;;;;
2023/10/11 07:39:20;;;;;;;;;;;;;;;;;;;;;
2023/10/11 07:43:35;;;;;;;14.20;8.80;;;;;;;18.11;95.58;100208.83;126916;1305;114950;-64
2023/10/11 07:47:05;;;;;;;;;;;;;;;;;;;;;
2023/10/11 07:50:51;;;;;;;17.90;8.50;;;;;;;18.59;94.49;100209.73;127899;1298;114998;-62
2023/10/11 07:54:43;;;;;;;17.20;8.50;;;;;;;18.83;93.85;100209.53;128101;1286;114795;-62
2023/10/11 07:58:22;;;;;;;15.70;8.30;;;;;;;19.00;92.76;100210.09;127991;1288;129085;-62
2023/10/11 08:01:59;;;;;;;18.90;7.60;;;;;;;19.12;92.14;100208.85;129001;1288;114741;-65
2023/10/11 08:06:00;;;;;;;14.30;7.20;;;;;;;19.20;91.70;100208.73;129163;1269;115138;-62
2023/10/11 08:09:09;;;;;;;13.30;7.90;;;;;;;19.29;90.87;100208.42;128855;1288;114780;-63
2023/10/11 08:12:28;;;;;;;14.90;6.70;;;;;;;19.40;90.67;100207.89;129005;1269;114756;-65
2023/10/11 08:15:58;;;;;;;18.30;7.50;;;;;;;19.53;90.34;100207.63;128992;1280;128901;-62
2023/10/11 08:19:36;;;;;;;;;;;;;;;;;;;;;
2023/10/11 08:23:50;;;;;;;17.20;7.10;;;;;;;19.80;88.86;100203.39;128489;1280;114824;-62
2023/10/11 08:27:00;;;;;;;14.00;7.00;;;;;;;19.96;88.67;100205.30;128998;1282;114797;-61
2023/10/11 08:30:33;;;;;;;13.80;7.00;;;;;;;20.12;88.26;100202.76;129020;1272;114878;-63
2023/10/11 08:34:07;;;;;;;;;;;;;;;;;;;;;
2023/10/11 08:38:18;;;;;;;11.70;6.40;;;;;;;20.45;87.31;100182.99;128330;1267;115237;-63
2023/10/11 08:41:26;;;;;;;15.00;7.00;;;;;;;20.57;86.14;100184.45;129103;1267;114823;-62
2023/10/11 08:44:59;;;;;;;13.20;7.00;;;;;;;20.64;85.87;100180.74;129076;1284;114712;-62
2023/10/11 08:48:49;;;;;;;;;;;;;;;;;;;;;
2023/10/11 08:52:22;;;;;;;11.70;6.90;;;;;;;20.78;85.05;100180.34;128563;1274;128664;-63
2023/10/11 08:55:55;;;;;;;;;;;;;;;;;;;;;
2023/10/11 08:59:56;;;;;;;13.80;6.80;;;;;;;20.94;84.27;100177.35;128515;1282;114834;-63
2023/10/11 09:04:03;;;;;;;12.50;6.70;;;;;;;21.02;83.87;100176.32;128016;1294;115022;-62
2023/10/11 09:07:35;;;;;;;;;;;;;;;;;;;;;
2023/10/11 09:15:33;;;;;;;14.30;6.30;;;;;;;21.15;81.80;100169.92;126241;1311;115219;-62
2023/10/11 09:19:41;;;;;;;11.40;6.90;;;;;;;21.20;81.52;100169.81;126096;1311;114980;-62
2023/10/11 09:23:46;;;;;;;18.40;7.10;;;;;;;21.32;81.30;100172.10;126518;1292;114948;-61
2023/10/11 09:31:27;;;;;;;15.40;6.30;;;;;;;21.42;80.35;100169.55;125805;1297;129859;-62
2023/10/11 09:35:13;;;;;;;10.70;5.80;;;;;;;21.49;80.06;100163.94;125257;1319;114880;-62
2023/10/11 09:39:15;;;;;;;;;;;;;;;;;;;;;
2023/10/11 09:42:17;;;;;;;14.60;6.50;;;;;;;21.82;79.42;100153.69;125313;1319;114981;-63
2023/10/11 09:45:41;;;;;;;12.10;6.20;;;;;;;21.98;79.19;100159.52;126046;1314;114911;-63
2023/10/11 09:48:49;;;;;;;14.00;6.50;;;;;;;22.16;78.83;100163.52;126677;1289;129730;-63
2023/10/11 09:52:26;;;;;;;14.40;6.40;;;;;;;22.32;78.12;100161.19;126658;1289;115297;-63
2023/10/11 09:56:23;;;;;;;10.80;6.40;;;;;;;22.53;77.59;100166.93;126670;1308;114954;-63
2023/10/11 10:00:09;;;;;;;16.70;6.50;;;;;;;22.80;76.66;100167.21;126988;1300;114865;-64
2023/10/11 10:03:38;;;;;;;14.00;5.50;;;;;;;23.04;76.30;100170.27;126975;1278;114964;-62
2023/10/11 10:08:00;;;;;;;10.10;5.60;;;;;;;23.19;75.27;100169.09;128094;1277;128631;-62
2023/10/11 10:11:03;;;;;;;16.70;7.00;;;;;;;23.30;74.64;100180.52;128664;1273;114939;-62
2023/10/11 10:15:20;;;;;;;12.80;5.90;;;;;;;23.37;74.30;100181.25;128060;1281;114947;-62
2023/10/11 10:18:00;;;;;;;11.60;5.80;;;;;;;23.42;73.13;100182.02;128110;1278;114856;-62
2023/10/11 10:21:30;;;;;;;14.90;6.00;;;;;;;23.48;72.70;100176.98;128353;1278;115174;-72
2023/10/11 10:24:36;;;;;;;11.80;5.30;;;;;;;23.62;72.44;100181.02;128230;1291;129107;-67
2023/10/11 10:27:52;;;;;;;9.40;6.10;;;;;;;23.71;71.99;100177.79;128055;1295;115179;-71
2023/10/11 10:31:26;;;;;;;13.90;6.00;;;;;;;23.82;71.60;100174.10;128468;1272;114951;-62
2023/10/11 10:35:06;;;;;;;13.30;6.50;;;;;;;23.94;71.12;100174.08;128136;1273;115121;-70
2023/10/11 10:38:47;;;;;;;;;;;;;;;;;;;;;
2023/10/11 10:42:29;;;;;;;;;;;;;;;;;;;;;
2023/10/11 10:45:59;;;;;;;12.20;6.10;;;;;;;24.09;69.61;100169.09;128117;1295;115436;-65
2023/10/11 10:50:02;;;;;;;;;;;;;;;;;;;;;
2023/10/11 10:53:55;;;;;;;12.50;5.70;;;;;;;23.99;68.24;100166.48;129234;1286;114944;-72
2023/10/11 10:57:10;;;;;;;;;;;;;;;;;;;;;
2023/10/11 11:00:53;;;;;;;11.10;6.10;;;;;;;23.96;67.63;100158.34;129739;1279;129283;-66
2023/10/11 11:04:37;;;;;;;9.60;5.90;;;;;;;23.96;66.99;100155.98;129664;1279;115185;-69
2023/10/11 11:08:25;;;;;;;16.00;6.00;;;;;;;23.98;66.78;100152.53;129629;1267;115026;-69
2023/10/11 11:11:51;;;;;;;10.10;5.70;;;;;;;24.02;66.40;100148.64;128923;1271;114902;-70
2023/10/11 11:15:23;;;;;;;13.40;6.30;;;;;;;24.06;65.86;100142.38;129117;1276;114706;-72
2023/10/11 11:19:34;;;;;;;13.70;5.90;;;;;;;24.09;64.93;100138.59;129145;1269;120201;-67
2023/10/11 11:23:19;;;;;;;11.20;5.30;;;;;;;24.13;64.07;100135.38;128727;1277;114762;-66
2023/10/11 11:26:35;;;;;;;12.90;5.80;;;;;;;24.17;63.49;100136.62;128336;1284;114916;-71
2023/10/11 11:30:17;;;;;;;14.40;5.70;;;;;;;24.19;63.35;100133.50;128565;1278;114855;-72
2023/10/11 11:34:27;;;;;;;11.10;5.10;;;;;;;24.19;63.10;100130.42;128395;1293;114847;-62
2023/10/11 11:37:29;;;;;;;9.50;5.30;;;;;;;24.16;63.11;100121.55;128382;1294;129063;-63
2023/10/11 11:41:11;;;;;;;13.80;6.20;;;;;;;24.11;62.29;100121.53;128086;1277;115339;-72
2023/10/11 11:44:55;;;;;;;;;;;;;;;;;;;;;
2023/10/11 11:47:58;;;;;;;17.40;6.70;;;;;;;24.06;61.81;100119.27;128972;1274;114959;-62
2023/10/11 11:51:13;;;;;;;11.00;5.20;;;;;;;24.06;61.77;100109.92;128973;1290;116746;-71
2023/10/11 11:55:16;;;;;;;;;;;;;;;;;;;;;
2023/10/11 11:58:50;;;;;;;15.00;5.70;;;;;;;24.02;61.12;100106.56;128407;1279;114877;-71
2023/10/11 12:02:42;;;;;;;10.00;5.60;;;;;;;23.95;60.68;100099.94;129061;1276;114972;-74
2023/10/11 12:06:37;;;;;;;;;;;;;;;;;;;;;
2023/10/11 12:10:01;;;;;;;11.40;5.70;;;;;;;23.76;60.41;100096.87;127894;1280;116343;-74
2023/10/11 12:13:23;;;;;;;;;;;;;;;;;;;;;
2023/10/11 12:17:09;;;;;;;19.80;5.70;;;;;;;23.65;60.06;100093.46;128647;1295;115199;-71
2023/10/11 12:20:46;;;;;;;;;;;;;;;;;;;;;
2023/10/11 12:23:57;;;;;;;12.60;6.30;;;;;;;23.55;59.88;100095.65;127733;1284;114928;-67
2023/10/11 12:27:05;;;;;;;12.20;6.10;;;;;;;23.50;59.52;100092.12;127812;1300;114832;-71
2023/10/11 12:30:48;;;;;;;12.30;6.00;;;;;;;23.45;59.33;100093.30;127874;1282;129047;-62
2023/10/11 12:34:55;;;;;;;;;;;;;;;;;;;;;
2023/10/11 12:38:23;;;;;;;11.60;6.40;;;;;;;23.24;59.41;100097.86;127776;1286;114955;-72
2023/10/11 12:41:50;;;;;;;12.60;5.60;;;;;;;23.15;59.56;100094.03;128577;1281;114840;-70
2023/10/11 12:45:41;;;;;;;;;;;;;;;;;;;;;
2023/10/11 12:49:18;;;;;;;12.30;5.30;;;;;;;22.97;59.60;100085.38;128184;1274;127965;-78
2023/10/11 12:52:51;;;;;;;;;;;;;;;;;;;;;
2023/10/11 12:56:27;;;;;;;11.80;5.40;;;;;;;22.79;59.63;100080.94;128874;1283;114757;-70
2023/10/11 12:59:38;;;;;;;14.90;6.40;;;;;;;22.70;59.59;100078.73;129176;1283;114896;-66
2023/10/11 13:04:06;;;;;;;10.80;5.80;;;;;;;22.65;60.11;100079.52;129368;1270;115200;-67
2023/10/11 13:07:21;;;;;;;;;;;;;;;;;;;;;
2023/10/11 13:11:31;;;;;;;17.00;6.60;;;;;;;22.51;59.67;100057.57;129141;1284;115372;-77
2023/10/11 13:15:02;;;;;;;15.70;5.90;;;;;;;22.48;59.82;100055.52;129498;1264;114859;-66
2023/10/11 13:19:01;;;;;;;10.20;5.00;;;;;;;22.46;59.86;100052.26;128860;1267;114930;-68
2023/10/11 13:22:24;;;;;;;;;;;;;;;;;;;;;
2023/10/11 13:25:55;;;;;;;9.70;5.70;;;;;;;22.43;59.42;100052.98;129252;1278;127710;-66
2023/10/11 13:29:33;;;;;;;14.70;5.30;;;;;;;22.44;59.51;100051.92;129584;1274;116499;-67
2023/10/11 13:33:08;;;;;;;;;;;;;;;;;;;;;
2023/10/11 13:37:13;;;;;;;9.00;4.80;;;;;;;22.45;59.48;100056.34;129366;1282;114920;-68
2023/10/11 13:40:45;;;;;;;11.20;5.20;;;;;;;22.44;59.64;100057.70;128468;1297;114820;-71
2023/10/11 13:44:03;;;;;;;10.80;5.00;;;;;;;22.45;59.35;100059.13;128412;1278;127121;-70
2023/10/11 13:47:09;;;;;;;14.40;5.60;;;;;;;22.44;59.49;100053.36;128763;1280;115481;-63
2023/10/11 13:51:03;;;;;;;;;;;;;;;;;;;;;
2023/10/11 13:55:25;;;;;;;14.30;5.30;;;;;;;22.41;59.25;100042.43;128503;1291;114925;-66
2023/10/11 13:58:37;;;;;;;10.40;5.20;;;;;;;22.36;59.41;100034.91;128652;1273;116577;-68
2023/10/11 14:06:01;;;;;;;;;;;;;;;;;;;;;
2023/10/11 14:10:17;;;;;;;11.00;5.10;;;;;;;22.27;59.54;100035.95;127395;1289;115161;-67
2023/10/11 14:13:48;;;;;;;;;;;;;;;;;;;;;
2023/10/11 14:17:38;;;;;;;;;;;;;;;;;;;;;
2023/10/11 14:21:40;;;;;;;;;;;;;;;;;;;;;
2023/10/11 14:24:41;;;;;;;17.90;6.20;;;;;;;22.13;59.84;100023.40;126608;1292;115476;-67
2023/10/11 14:28:36;;;;;;;9.90;5.50;;;;;;;22.08;59.82;100015.72;126415;1295;114779;-69
2023/10/11 14:32:37;;;;;;;9.50;5.70;;;;;;;22.02;59.88;100021.26;127160;1304;115015;-67
2023/10/11 14:36:36;;;;;;;16.50;6.30;;;;;;;21.96;60.01;100015.28;126333;1295;115067;-66
2023/10/11 14:40:29;;;;;;;10.70;5.50;;;;;;;21.89;60.27;100015.90;126528;1286;128492;-66
2023/10/11 14:44:22;;;;;;;10.10;5.50;;;;;;;21.82;60.45;100010.73;126521;1296;115449;-66
2023/10/11 14:48:08;;;;;;;13.90;6.30;;;;;;;21.75;60.41;100006.74;126157;1306;114980;-66
2023/10/11 14:55:37;;;;;;;;;;;;;;;;;;;;;
2023/10/11 14:58:58;;;;;;;12.00;5.70;;;;;;;21.54;60.92;100002.08;129554;1260;128890;-64
2023/10/11 15:02:50;;;;;;;11.70;4.80;;;;;;;21.46;60.72;100006.56;129803;1267;116492;-66
2023/10/11 15:06:15;;;;;;;11.70;5.80;;;;;;;21.37;60.89;100007.02;129126;1272;114862;-66
2023/10/11 15:10:10;;;;;;;18.10;6.00;;;;;;;21.31;61.03;100007.66;124759;1275;5455119;-66
2023/10/11 15:13:22;;;;;;;15.70;6.30;;;;;;;21.20;61.22;100003.95;128621;1280;115017;-65
2023/10/11 15:16:51;;;;;;;13.90;5.00;;;;;;;21.13;61.23;100000.73;128502;1276;114907;-64
2023/10/11 15:20:23;;;;;;;;;;;;;;;;;;;;;
2023/10/11 15:23:59;;;;;;;12.20;5.80;;;;;;;20.93;61.42;100002.08;127563;1283;115272;-76
2023/10/11 15:27:02;;;;;;;20.40;6.50;;;;;;;20.84;61.66;100002.27;127746;1281;115002;-66
2023/10/11 15:30:11;;;;;;;13.80;6.20;;;;;;;20.75;61.79;100001.30;127761;1283;115224;-69
2023/10/11 15:33:37;;;;;;;10.30;5.70;;;;;;;20.65;62.04;100001.11;127737;1286;114886;-74
2023/10/11 15:36:43;;;;;;;12.10;5.70;;;;;;;20.54;62.41;100006.61;127238;1283;129001;-65
2023/10/11 15:39:49;;;;;;;12.50;5.90;;;;;;;20.44;62.53;100006.29;127348;1298;115407;-67
2023/10/11 15:43:20;;;;;;;8.70;5.70;;;;;;;20.32;62.73;100007.52;128068;1287;114944;-66
2023/10/11 15:47:27;;;;;;;12.80;6.10;;;;;;;20.21;62.99;100008.21;128570;1272;114908;-67
2023/10/11 15:50:35;;;;;;;17.00;6.80;;;;;;;20.08;63.19;100005.17;128821;1289;115289;-63
2023/10/11 15:53:42;;;;;;;16.40;6.30;;;;;;;19.96;63.35;99999.70;128888;1289;127964;-65
2023/10/11 15:57:17;;;;;;;16.10;6.70;;;;;;;19.86;63.49;99998.24;129294;1279;114896;-67
2023/10/11 16:00:25;;;;;;;19.00;6.70;;;;;;;19.76;63.78;100004.61;129926;1262;114788;-76
2023/10/11 16:03:58;;;;;;;12.00;6.40;;;;;;;19.67;63.94;100004.59;130199;1262;115582;-64
2023/10/11 16:07:16;;;;;;;18.40;5.70;;;;;;;19.57;64.10;99995.46;129366;1280;115137;-65
2023/10/11 16:10:21;;;;;;;15.20;7.00;;;;;;;19.49;64.33;99997.73;130086;1262;127994;-65
2023/10/11 16:13:52;;;;;;;15.90;6.10;;;;;;;19.41;64.59;100000.07;130103;1258;115153;-69
2023/10/11 16:17:41;;;;;;;;;;;;;;;;;;;;;
2023/10/11 16:21:27;;;;;;;11.10;5.40;;;;;;;19.23;65.09;100001.83;129052;1265;116019;-68
2023/10/11 16:25:29;;;;;;;;;;;;;;;;;;;;;
2023/10/11 16:29:18;;;;;;;11.70;6.00;;;;;;;19.05;65.45;100009.45;128513;1277;128897;-76
2023/10/11 16:37:10;;;;;;;17.30;7.60;;;;;;;18.92;65.89;100013.42;125893;1298;637734;-75
2023/10/11 16:40:56;;;;;;;11.60;6.00;;;;;;;18.83;66.20;100012.45;128645;1286;128930;-75
2023/10/11 16:44:59;;;;;;;13.80;6.40;;;;;;;18.77;66.42;100012.62;127712;1293;115202;-67
2023/10/11 16:52:36;;;;;;;13.00;7.20;;;;;;;18.64;66.88;100022.21;122478;1306;114868;-67
2023/10/11 16:56:36;;;;;;;19.00;8.40;;;;;;;18.58;66.95;100022.62;126423;1293;115282;-65
2023/10/11 16:59:56;;;;;;;;;;;;;;;;;;;;;
2023/10/11 17:02:59;;;;;;;18.10;9.20;;;;;;;18.46;67.38;100027.83;126562;1304;130192;-73
2023/10/11 17:06:52;;;;;;;;;;;;;;;;;;;;;
2023/10/11 17:10:35;;;;;;;;;;;;;;;;;;;;;
2023/10/11 17:14:21;;;;;;;;;;;;;;;;;;;;;
2023/10/11 17:18:27;;;;;;;18.00;8.50;;;;;;;18.23;68.25;100019.48;125628;1319;115028;-69
2023/10/11 17:21:27;;;;;;;16.90;8.00;;;;;;;18.18;68.40;100019.70;126153;1315;129559;-73
2023/10/11 17:25:12;;;;;;;;;;;;;;;;;;;;;
2023/10/11 17:28:38;;;;;;;21.00;10.10;;;;;;;18.12;68.88;100012.61;127970;1293;114820;-68
2023/10/11 17:32:23;;;;;;;21.20;10.30;;;;;;;18.09;69.07;100015.98;127947;1283;114839;-76
2023/10/11 17:36:08;;;;;;;;;;;;;;;;;;;;;
2023/10/11 17:40:05;;;;;;;14.80;7.20;;;;;;;18.01;69.42;100013.35;127834;1302;128736;-72
2023/10/11 17:43:48;;;;;;;;;;;;;;;17.97;69.63;100013.55;128483;1277;114742;-67
2023/10/11 17:47:33;;;;;;;;;;;;;;;;;;;;;
2023/10/11 17:51:21;;;;;;;19.30;6.90;;;;;;;17.84;70.01;100004.85;128741;1282;114840;-71
2023/10/11 17:58:42;;;;;;;14.00;6.50;;;;;;;17.71;70.59;100014.44;126518;1295;128726;-67
2023/10/11 18:02:33;;;;;;;;;;;;;;;;;;;;;
2023/10/11 18:06:22;;;;;;;18.00;7.90;;;;;;;17.61;71.14;100005.37;126175;1305;114965;-67
2023/10/11 18:10:20;;;;;;;14.90;5.90;;;;;;;17.58;71.28;100008.31;126186;1295;114974;-73
2023/10/11 18:14:22;;;;;;;16.00;6.70;;;;;;;17.56;71.51;100004.87;126462;1295;115025;-67
2023/10/11 18:17:56;;;;;;;18.90;7.00;;;;;;;17.54;71.82;99996.55;126238;1298;129304;-68
2023/10/11 18:21:35;;;;;;;;;;;;;;;;;;;;;
2023/10/11 18:25:16;;;;;;;;;;;;;;;;;;;;;
2023/10/11 18:29:08;;;;;;;16.50;8.10;;;;;;;17.51;72.45;99991.77;126175;1311;115124;-71
2023/10/11 18:33:10;;;;;;;18.50;7.40;;;;;;;17.50;72.56;99990.75;125705;1304;115064;-72
2023/10/11 18:36:56;;;;;;;;;;;;;;;;;;;;;
2023/10/11 18:40:14;;;;;;;17.50;8.00;;;;;;;17.49;73.01;99987.77;125926;1316;115419;-71
2023/10/11 18:44:01;;;;;;;18.90;8.60;;;;;;;17.49;73.23;99984.54;126084;1315;115039;-74
2023/10/11 18:47:41;;;;;;;;;;;;;;;;;;;;;
2023/10/11 18:51:51;;;;;;;23.50;8.20;;;;;;;17.46;73.81;99987.93;126075;1308;114964;-75
2023/10/11 18:55:30;;;;;;;;;;;;;;;17.45;74.16;99993.29;127511;1292;129719;-72
2023/10/11 18:59:00;;;;;;;;;;;;;;;;;;;;;
2023/10/11 19:02:44;;;;;;;;;;;;;;;;;;;;;
2023/10/11 19:06:05;;;;;;;18.50;9.90;;;;;;;17.41;75.02;99991.67;126826;1292;114878;-67
2023/10/11 19:10:04;;;;;;;;;;;;;;;;;;;;;
2023/10/11 19:13:42;;;;;;;16.20;10.20;;;;;;;17.40;75.48;99988.15;126803;1296;128569;-74
2023/10/11 19:17:26;;;;;;;19.00;11.00;;;;;;;17.38;75.67;99988.96;127039;1287;115412;-66
2023/10/11 19:20:37;;;;;;;21.70;11.50;;;;;;;17.36;75.98;99992.41;126943;1284;114968;-69
2023/10/11 19:24:00;;;;;;;20.30;10.60;;;;;;;17.34;76.19;99987.91;127305;1290;114913;-73
2023/10/11 19:27:06;;;;;;;24.70;11.90;;;;;;;17.33;76.37;99993.45;126777;1296;114912;-67
2023/10/11 19:30:29;;;;;;;21.80;11.40;;;;;;;17.30;76.53;99989.11;127233;1296;129705;-75
2023/10/11 19:33:50;;;;;;;19.60;13.30;;;;;;;17.29;76.78;99988.85;126742;1298;115297;-72
2023/10/11 19:36:53;;;;;;;20.90;11.60;;;;;;;17.28;77.01;99988.02;126866;1292;114912;-74
2023/10/11 19:40:56;;;;;;;20.40;12.60;;;;;;;17.27;77.14;99990.30;126997;1291;114972;-68
2023/10/11 19:44:09;;;;;;;19.80;11.80;;;;;;;17.25;77.34;99993.30;127598;1289;115069;-71
2023/10/11 19:47:43;;;;;;;23.10;13.20;;;;;;;17.23;77.48;99988.61;127521;1291;129057;-68
2023/10/11 19:50:56;;;;;;;20.00;13.20;;;;;;;17.22;77.75;99986.76;127999;1297;114852;-72
2023/10/11 19:54:43;;;;;;;32.50;13.70;;;;;;;17.20;78.01;99988.73;128647;1288;114841;-68
2023/10/11 19:57:53;;;;;;;26.70;14.20;;;;;;;17.17;78.21;99996.86;128327;1277;114917;-68
2023/10/11 20:01:23;;;;;;;22.90;13.50;;;;;;;17.15;78.34;99996.61;128433;1286;114925;-67
2023/10/11 20:04:37;;;;;;;24.00;14.40;;;;;;;17.15;78.52;99995.77;128463;1290;128680;-69
2023/10/11 20:08:32;;;;;;;27.50;14.30;;;;;;;17.14;78.66;99996.05;129139;1290;115278;-66
2023/10/11 20:12:11;;;;;;;27.10;13.70;;;;;;;17.13;78.91;99996.84;128513;1295;114985;-66
2023/10/11 20:15:51;;;;;;;;;;;;;;;;;;;;;
2023/10/11 20:19:29;;;;;;;;;;;;;;;;;;;;;
2023/10/11 20:23:16;;;;;;;22.90;13.20;;;;;;;17.07;79.02;99991.05;127725;1283;127312;-67
2023/10/11 20:26:51;;;;;;;23.30;14.00;;;;;;;17.04;79.21;99989.06;127335;1303;115434;-70
2023/10/11 20:31:03;;;;;;;26.60;13.90;;;;;;;17.00;79.23;99982.69;127578;1299;115035;-71
2023/10/11 20:34:27;;;;;;;23.40;13.90;;;;;;;16.96;79.37;99980.90;127692;1283;114936;-74
2023/10/11 20:37:41;;;;;;;21.30;13.90;;;;;;;16.92;79.37;99976.70;128124;1280;114881;-73
2023/10/11 20:41:00;;;;;;;27.70;14.00;;;;;;;16.89;79.44;99976.38;127846;1283;128860;-74
2023/10/11 20:44:40;;;;;;;25.20;12.80;;;;;;;16.85;79.58;99978.99;127869;1299;115214;-73
2023/10/11 20:48:32;;;;;;;;;;;;;;;;;;;;;
2023/10/11 20:52:07;;;;;;;20.20;11.30;;;;;;;16.79;79.53;99980.23;128424;1292;114673;-73
2023/10/11 20:55:33;;;;;;;26.70;12.60;;;;;;;16.77;79.46;99978.98;128608;1292;114785;-74
2023/10/11 20:59:06;;;;;;;23.90;11.40;;;;;;;16.73;79.45;99970.63;128465;1265;128283;-71
2023/10/11 21:01:58;;;;;;;19.70;10.80;;;;;;;16.70;79.44;99973.58;129114;1287;115453;-71
2023/10/11 21:05:13;;;;;;;20.50;11.30;;;;;;;16.68;79.45;99965.96;128979;1273;114858;-72
2023/10/11 21:08:36;;;;;;;;;;;;;;;;;;;;;
2023/10/11 21:12:18;;;;;;;;;;;;;;;;;;;;;
2023/10/11 21:15:54;;;;;;;22.80;11.10;;;;;;;16.58;79.62;99958.99;128612;1289;128798;-70
2023/10/11 21:19:16;;;;;;;19.70;10.50;;;;;;;16.55;79.68;99961.77;128273;1292;114935;-74
2023/10/11 21:22:50;;;;;;;18.20;11.20;;;;;;;16.52;79.72;99954.63;128957;1273;114926;-68
2023/10/11 21:26:09;;;;;;;17.50;10.70;;;;;;;16.49;79.78;99960.10;128671;1292;114775;-74